sensor_id;sensor_type;location;lat;lon;timestamp;P1;durP1;ratioP1;P2;durP2;ratioP2
78322;SDS011;67583;50.616;-3.404;2023-11-21T00:02:17;9.15;;;2.53;;
78322;SDS011;67583;50.616;-3.404;2023-11-21T00:04:43;15.18;;;4.22;;
78322;SDS011;67583;50.616;-3.404;2023-11-21T00:07:08;6.82;;;2.72;;
78322;SDS011;67583;50.616;-3.404;2023-11-21T00:09:33;11.30;;;3.15;;
78322;SDS011;67583;50.616;-3.404;2023-11-21T00:12:00;7.85;;;2.83;;
78322;SDS011;67583;50.616;-3.404;2023-11-21T00:14:25;11.98;;;2.03;;
78322;SDS011;67583;50.616;-3.404;2023-11-21T00:16:51;10.80;;;3.25;;
78322;SDS011;67583;50.616;-3.404;2023-11-21T00:19:16;9.88;;;2.78;;
78322;SDS011;67583;50.616;-3.404;2023-11-21T00:21:42;8.57;;;2.10;;
78322;SDS011;67583;50.616;-3.404;2023-11-21T00:24:09;14.13;;;4.35;;
78322;SDS011;67583;50.616;-3.404;2023-11-21T00:26:35;20.05;;;6.28;;
78322;SDS011;67583;50.616;-3.404;2023-11-21T00:29:02;14.60;;;5.82;;
78322;SDS011;67583;50.616;-3.404;2023-11-21T00:31:28;17.73;;;4.35;;
78322;SDS011;67583;50.616;-3.404;2023-11-21T00:33:53;11.15;;;3.65;;
78322;SDS011;67583;50.616;-3.404;2023-11-21T00:36:20;13.02;;;4.90;;
78322;SDS011;67583;50.616;-3.404;2023-11-21T00:38:45;11.75;;;4.13;;
78322;SDS011;67583;50.616;-3.404;2023-11-21T00:41:12;12.95;;;5.38;;
78322;SDS011;67583;50.616;-3.404;2023-11-21T00:43:37;11.57;;;2.60;;
78322;SDS011;67583;50.616;-3.404;2023-11-21T00:46:05;12.88;;;4.35;;
78322;SDS011;67583;50.616;-3.404;2023-11-21T00:48:34;15.55;;;4.63;;
78322;SDS011;67583;50.616;-3.404;2023-11-21T00:50:59;13.65;;;4.22;;
78322;SDS011;67583;50.616;-3.404;2023-11-21T00:53:25;12.30;;;4.30;;
78322;SDS011;67583;50.616;-3.404;2023-11-21T00:55:50;11.02;;;4.07;;
78322;SDS011;67583;50.616;-3.404;2023-11-21T01:21:50;15.23;;;5.40;;
78322;SDS011;67583;50.616;-3.404;2023-11-21T01:24:17;8.15;;;3.15;;
78322;SDS011;67583;50.616;-3.404;2023-11-21T01:26:42;14.65;;;6.13;;
78322;SDS011;67583;50.616;-3.404;2023-11-21T01:29:08;27.40;;;12.30;;
78322;SDS011;67583;50.616;-3.404;2023-11-21T01:31:33;14.55;;;4.35;;
78322;SDS011;67583;50.616;-3.404;2023-11-21T01:33:59;11.85;;;3.20;;
78322;SDS011;67583;50.616;-3.404;2023-11-21T01:36:29;16.55;;;2.75;;
78322;SDS011;67583;50.616;-3.404;2023-11-21T01:38:57;10.07;;;2.53;;
78322;SDS011;67583;50.616;-3.404;2023-11-21T01:41:24;7.45;;;2.85;;
78322;SDS011;67583;50.616;-3.404;2023-11-21T01:43:52;10.18;;;2.33;;
78322;SDS011;67583;50.616;-3.404;2023-11-21T01:46:18;9.75;;;2.47;;
78322;SDS011;67583;50.616;-3.404;2023-11-21T01:48:45;15.27;;;2.67;;
78322;SDS011;67583;50.616;-3.404;2023-11-21T01:51:11;10.18;;;2.45;;
78322;SDS011;67583;50.616;-3.404;2023-11-21T01:53:36;15.20;;;2.28;;
78322;SDS011;67583;50.616;-3.404;2023-11-21T01:56:02;9.57;;;2.25;;
78322;SDS011;67583;50.616;-3.404;2023-11-21T02:00:52;7.47;;;1.73;;
78322;SDS011;67583;50.616;-3.404;2023-11-21T02:03:19;16.02;;;2.50;;
78322;SDS011;67583;50.616;-3.404;2023-11-21T02:05:45;17.08;;;2.83;;
78322;SDS011;67583;50.616;-3.404;2023-11-21T02:08:11;9.57;;;2.65;;
78322;SDS011;67583;50.616;-3.404;2023-11-21T02:10:36;8.02;;;2.20;;
78322;SDS011;67583;50.616;-3.404;2023-11-21T02:13:02;9.80;;;2.00;;
78322;SDS011;67583;50.616;-3.404;2023-11-21T02:15:28;10.50;;;2.15;;
78322;SDS011;67583;50.616;-3.404;2023-11-21T02:17:54;7.57;;;2.10;;
78322;SDS011;67583;50.616;-3.404;2023-11-21T02:20:20;13.55;;;2.58;;
78322;SDS011;67583;50.616;-3.404;2023-11-21T02:22:55;10.95;;;2.00;;
78322;SDS011;67583;50.616;-3.404;2023-11-21T02:25:33;8.05;;;1.88;;
78322;SDS011;67583;50.616;-3.404;2023-11-21T02:28:00;7.97;;;2.05;;
78322;SDS011;67583;50.616;-3.404;2023-11-21T02:30:26;7.28;;;1.88;;
78322;SDS011;67583;50.616;-3.404;2023-11-21T02:32:53;7.53;;;2.00;;
78322;SDS011;67583;50.616;-3.404;2023-11-21T02:35:18;7.47;;;2.03;;
78322;SDS011;67583;50.616;-3.404;2023-11-21T02:37:46;10.23;;;2.65;;
78322;SDS011;67583;50.616;-3.404;2023-11-21T02:40:12;6.68;;;1.95;;
78322;SDS011;67583;50.616;-3.404;2023-11-21T02:42:37;6.32;;;2.05;;
78322;SDS011;67583;50.616;-3.404;2023-11-21T02:45:04;9.82;;;1.95;;
78322;SDS011;67583;50.616;-3.404;2023-11-21T02:47:31;10.23;;;2.25;;
78322;SDS011;67583;50.616;-3.404;2023-11-21T02:49:56;14.68;;;3.15;;
78322;SDS011;67583;50.616;-3.404;2023-11-21T02:52:21;5.90;;;1.88;;
78322;SDS011;67583;50.616;-3.404;2023-11-21T02:54:47;4.97;;;2.05;;
78322;SDS011;67583;50.616;-3.404;2023-11-21T02:57:13;9.43;;;1.80;;
78322;SDS011;67583;50.616;-3.404;2023-11-21T02:59:38;4.32;;;1.75;;
78322;SDS011;67583;50.616;-3.404;2023-11-21T03:02:03;7.68;;;2.05;;
78322;SDS011;67583;50.616;-3.404;2023-11-21T03:04:29;8.50;;;1.95;;
78322;SDS011;67583;50.616;-3.404;2023-11-21T03:06:55;6.43;;;1.90;;
78322;SDS011;67583;50.616;-3.404;2023-11-21T03:09:21;9.50;;;1.73;;
78322;SDS011;67583;50.616;-3.404;2023-11-21T03:11:46;3.85;;;1.88;;
78322;SDS011;67583;50.616;-3.404;2023-11-21T03:14:12;9.18;;;1.80;;
78322;SDS011;67583;50.616;-3.404;2023-11-21T03:16:37;6.60;;;2.47;;
78322;SDS011;67583;50.616;-3.404;2023-11-21T03:19:03;6.05;;;1.45;;
78322;SDS011;67583;50.616;-3.404;2023-11-21T03:21:30;5.25;;;1.85;;
78322;SDS011;67583;50.616;-3.404;2023-11-21T03:23:55;6.80;;;2.67;;
78322;SDS011;67583;50.616;-3.404;2023-11-21T03:26:20;4.25;;;1.60;;
78322;SDS011;67583;50.616;-3.404;2023-11-21T03:28:46;7.70;;;1.63;;
78322;SDS011;67583;50.616;-3.404;2023-11-21T03:31:11;10.02;;;1.55;;
78322;SDS011;67583;50.616;-3.404;2023-11-21T03:33:37;7.88;;;2.00;;
78322;SDS011;67583;50.616;-3.404;2023-11-21T03:36:02;7.50;;;1.63;;
78322;SDS011;67583;50.616;-3.404;2023-11-21T03:38:28;8.30;;;1.85;;
78322;SDS011;67583;50.616;-3.404;2023-11-21T03:40:54;9.20;;;2.13;;
78322;SDS011;67583;50.616;-3.404;2023-11-21T03:43:19;5.00;;;1.83;;
78322;SDS011;67583;50.616;-3.404;2023-11-21T03:45:45;7.90;;;1.65;;
78322;SDS011;67583;50.616;-3.404;2023-11-21T03:48:11;4.82;;;1.48;;
78322;SDS011;67583;50.616;-3.404;2023-11-21T03:50:37;5.75;;;1.35;;
78322;SDS011;67583;50.616;-3.404;2023-11-21T03:53:03;4.32;;;1.27;;
78322;SDS011;67583;50.616;-3.404;2023-11-21T03:55:29;4.32;;;1.48;;
78322;SDS011;67583;50.616;-3.404;2023-11-21T03:57:56;7.05;;;1.83;;
78322;SDS011;67583;50.616;-3.404;2023-11-21T04:00:22;6.47;;;1.50;;
78322;SDS011;67583;50.616;-3.404;2023-11-21T04:02:48;4.10;;;1.33;;
78322;SDS011;67583;50.616;-3.404;2023-11-21T04:05:13;2.67;;;1.08;;
78322;SDS011;67583;50.616;-3.404;2023-11-21T04:07:38;3.60;;;1.52;;
78322;SDS011;67583;50.616;-3.404;2023-11-21T04:10:05;4.45;;;1.95;;
78322;SDS011;67583;50.616;-3.404;2023-11-21T04:12:33;5.22;;;1.20;;
78322;SDS011;67583;50.616;-3.404;2023-11-21T04:14:59;6.75;;;1.73;;
78322;SDS011;67583;50.616;-3.404;2023-11-21T04:17:25;5.18;;;2.10;;
78322;SDS011;67583;50.616;-3.404;2023-11-21T04:19:50;5.00;;;1.30;;
78322;SDS011;67583;50.616;-3.404;2023-11-21T04:22:15;4.18;;;1.30;;
78322;SDS011;67583;50.616;-3.404;2023-11-21T04:24:41;4.00;;;1.42;;
78322;SDS011;67583;50.616;-3.404;2023-11-21T04:27:06;4.22;;;1.15;;
78322;SDS011;67583;50.616;-3.404;2023-11-21T04:29:32;3.50;;;1.70;;
78322;SDS011;67583;50.616;-3.404;2023-11-21T04:31:58;5.97;;;1.40;;
78322;SDS011;67583;50.616;-3.404;2023-11-21T04:34:23;3.22;;;1.42;;
78322;SDS011;67583;50.616;-3.404;2023-11-21T04:36:50;5.00;;;1.50;;
78322;SDS011;67583;50.616;-3.404;2023-11-21T04:39:15;5.20;;;1.38;;
78322;SDS011;67583;50.616;-3.404;2023-11-21T04:41:41;5.50;;;1.88;;
78322;SDS011;67583;50.616;-3.404;2023-11-21T04:44:06;2.97;;;1.45;;
78322;SDS011;67583;50.616;-3.404;2023-11-21T04:46:31;4.75;;;1.25;;
78322;SDS011;67583;50.616;-3.404;2023-11-21T04:48:57;3.00;;;1.35;;
78322;SDS011;67583;50.616;-3.404;2023-11-21T04:51:23;2.33;;;1.40;;
78322;SDS011;67583;50.616;-3.404;2023-11-21T04:53:48;4.00;;;1.52;;
78322;SDS011;67583;50.616;-3.404;2023-11-21T04:56:14;3.50;;;1.45;;
78322;SDS011;67583;50.616;-3.404;2023-11-21T04:58:41;3.30;;;1.30;;
78322;SDS011;67583;50.616;-3.404;2023-11-21T05:01:07;3.25;;;1.30;;
78322;SDS011;67583;50.616;-3.404;2023-11-21T05:03:32;5.47;;;1.90;;
78322;SDS011;67583;50.616;-3.404;2023-11-21T05:05:59;7.25;;;1.70;;
78322;SDS011;67583;50.616;-3.404;2023-11-21T05:08:24;5.90;;;1.70;;
78322;SDS011;67583;50.616;-3.404;2023-11-21T05:10:51;2.35;;;1.83;;
78322;SDS011;67583;50.616;-3.404;2023-11-21T05:13:17;3.22;;;1.73;;
78322;SDS011;67583;50.616;-3.404;2023-11-21T05:15:43;1.80;;;1.30;;
78322;SDS011;67583;50.616;-3.404;2023-11-21T05:18:09;3.50;;;1.45;;
78322;SDS011;67583;50.616;-3.404;2023-11-21T05:20:35;5.50;;;1.70;;
78322;SDS011;67583;50.616;-3.404;2023-11-21T05:23:00;2.13;;;1.40;;
78322;SDS011;67583;50.616;-3.404;2023-11-21T05:25:26;3.70;;;1.30;;
78322;SDS011;67583;50.616;-3.404;2023-11-21T05:27:51;1.70;;;1.30;;
78322;SDS011;67583;50.616;-3.404;2023-11-21T05:30:18;6.35;;;1.92;;
78322;SDS011;67583;50.616;-3.404;2023-11-21T05:32:43;1.48;;;1.15;;
78322;SDS011;67583;50.616;-3.404;2023-11-21T05:35:09;2.92;;;1.10;;
78322;SDS011;67583;50.616;-3.404;2023-11-21T05:37:39;5.28;;;1.83;;
78322;SDS011;67583;50.616;-3.404;2023-11-21T05:40:05;2.88;;;1.17;;
78322;SDS011;67583;50.616;-3.404;2023-11-21T05:42:31;2.55;;;1.40;;
78322;SDS011;67583;50.616;-3.404;2023-11-21T05:44:57;5.38;;;1.60;;
78322;SDS011;67583;50.616;-3.404;2023-11-21T05:47:36;3.15;;;1.65;;
78322;SDS011;67583;50.616;-3.404;2023-11-21T05:50:02;3.72;;;1.65;;
78322;SDS011;67583;50.616;-3.404;2023-11-21T05:52:29;4.35;;;1.70;;
78322;SDS011;67583;50.616;-3.404;2023-11-21T05:54:55;6.32;;;2.17;;
78322;SDS011;67583;50.616;-3.404;2023-11-21T05:57:20;2.10;;;1.55;;
78322;SDS011;67583;50.616;-3.404;2023-11-21T05:59:45;3.28;;;2.05;;
78322;SDS011;67583;50.616;-3.404;2023-11-21T06:02:11;4.05;;;1.90;;
78322;SDS011;67583;50.616;-3.404;2023-11-21T06:04:36;6.15;;;2.03;;
78322;SDS011;67583;50.616;-3.404;2023-11-21T06:07:02;3.75;;;1.85;;
78322;SDS011;67583;50.616;-3.404;2023-11-21T06:09:27;4.82;;;2.10;;
78322;SDS011;67583;50.616;-3.404;2023-11-21T06:11:53;4.40;;;1.80;;
78322;SDS011;67583;50.616;-3.404;2023-11-21T06:14:18;7.93;;;2.42;;
78322;SDS011;67583;50.616;-3.404;2023-11-21T06:16:44;4.68;;;1.95;;
78322;SDS011;67583;50.616;-3.404;2023-11-21T06:19:10;4.43;;;2.05;;
78322;SDS011;67583;50.616;-3.404;2023-11-21T06:21:36;5.95;;;2.17;;
78322;SDS011;67583;50.616;-3.404;2023-11-21T06:24:01;4.03;;;2.10;;
78322;SDS011;67583;50.616;-3.404;2023-11-21T06:26:26;3.38;;;2.03;;
78322;SDS011;67583;50.616;-3.404;2023-11-21T06:28:52;7.40;;;2.00;;
78322;SDS011;67583;50.616;-3.404;2023-11-21T06:31:18;4.13;;;1.88;;
78322;SDS011;67583;50.616;-3.404;2023-11-21T06:33:44;4.20;;;1.75;;
78322;SDS011;67583;50.616;-3.404;2023-11-21T06:36:09;3.55;;;2.00;;
78322;SDS011;67583;50.616;-3.404;2023-11-21T06:38:36;3.28;;;1.83;;
78322;SDS011;67583;50.616;-3.404;2023-11-21T06:41:02;3.70;;;1.75;;
78322;SDS011;67583;50.616;-3.404;2023-11-21T06:43:27;3.03;;;1.80;;
78322;SDS011;67583;50.616;-3.404;2023-11-21T06:45:52;3.92;;;1.67;;
78322;SDS011;67583;50.616;-3.404;2023-11-21T06:48:18;3.20;;;1.50;;
78322;SDS011;67583;50.616;-3.404;2023-11-21T06:50:43;2.10;;;1.50;;
78322;SDS011;67583;50.616;-3.404;2023-11-21T06:53:08;1.48;;;1.30;;
78322;SDS011;67583;50.616;-3.404;2023-11-21T06:55:34;3.08;;;1.33;;
78322;SDS011;67583;50.616;-3.404;2023-11-21T06:58:00;3.80;;;1.50;;
78322;SDS011;67583;50.616;-3.404;2023-11-21T07:00:25;3.50;;;2.42;;
78322;SDS011;67583;50.616;-3.404;2023-11-21T07:02:53;2.00;;;1.20;;
78322;SDS011;67583;50.616;-3.404;2023-11-21T07:05:20;1.48;;;1.20;;
78322;SDS011;67583;50.616;-3.404;2023-11-21T07:07:46;1.98;;;1.30;;
78322;SDS011;67583;50.616;-3.404;2023-11-21T07:10:13;6.65;;;3.47;;
78322;SDS011;67583;50.616;-3.404;2023-11-21T07:12:38;2.30;;;1.30;;
78322;SDS011;67583;50.616;-3.404;2023-11-21T07:15:05;1.50;;;1.13;;
78322;SDS011;67583;50.616;-3.404;2023-11-21T07:17:34;1.98;;;1.58;;
78322;SDS011;67583;50.616;-3.404;2023-11-21T07:20:00;1.50;;;1.10;;
78322;SDS011;67583;50.616;-3.404;2023-11-21T07:22:26;2.88;;;1.00;;
78322;SDS011;67583;50.616;-3.404;2023-11-21T07:24:51;1.83;;;1.48;;
78322;SDS011;67583;50.616;-3.404;2023-11-21T07:27:17;2.72;;;1.50;;
78322;SDS011;67583;50.616;-3.404;2023-11-21T07:29:42;1.35;;;1.20;;
78322;SDS011;67583;50.616;-3.404;2023-11-21T07:32:08;2.20;;;1.30;;
78322;SDS011;67583;50.616;-3.404;2023-11-21T07:34:34;3.85;;;1.60;;
78322;SDS011;67583;50.616;-3.404;2023-11-21T07:37:01;2.97;;;1.85;;
78322;SDS011;67583;50.616;-3.404;2023-11-21T07:39:26;3.70;;;2.20;;
78322;SDS011;67583;50.616;-3.404;2023-11-21T07:41:52;11.82;;;5.15;;
78322;SDS011;67583;50.616;-3.404;2023-11-21T07:44:17;26.60;;;13.98;;
78322;SDS011;67583;50.616;-3.404;2023-11-21T07:46:42;55.63;;;29.80;;
78322;SDS011;67583;50.616;-3.404;2023-11-21T07:49:08;46.95;;;23.13;;
78322;SDS011;67583;50.616;-3.404;2023-11-21T07:51:34;48.25;;;24.63;;
78322;SDS011;67583;50.616;-3.404;2023-11-21T07:53:59;22.85;;;12.98;;
78322;SDS011;67583;50.616;-3.404;2023-11-21T07:56:25;14.98;;;6.85;;
78322;SDS011;67583;50.616;-3.404;2023-11-21T07:58:51;35.65;;;18.13;;
78322;SDS011;67583;50.616;-3.404;2023-11-21T08:01:16;17.33;;;8.90;;
78322;SDS011;67583;50.616;-3.404;2023-11-21T08:03:42;13.40;;;6.85;;
78322;SDS011;67583;50.616;-3.404;2023-11-21T08:06:09;8.80;;;4.38;;
78322;SDS011;67583;50.616;-3.404;2023-11-21T08:08:34;5.53;;;2.75;;
78322;SDS011;67583;50.616;-3.404;2023-11-21T08:10:59;6.43;;;3.53;;
78322;SDS011;67583;50.616;-3.404;2023-11-21T08:13:26;11.63;;;7.47;;
78322;SDS011;67583;50.616;-3.404;2023-11-21T08:15:56;3.15;;;1.70;;
78322;SDS011;67583;50.616;-3.404;2023-11-21T08:18:26;5.55;;;1.83;;
78322;SDS011;67583;50.616;-3.404;2023-11-21T08:20:52;2.83;;;1.75;;
78322;SDS011;67583;50.616;-3.404;2023-11-21T08:23:17;4.05;;;1.65;;
78322;SDS011;67583;50.616;-3.404;2023-11-21T08:25:45;7.45;;;5.93;;
78322;SDS011;67583;50.616;-3.404;2023-11-21T08:28:12;3.20;;;2.35;;
78322;SDS011;67583;50.616;-3.404;2023-11-21T08:30:39;2.42;;;1.90;;
78322;SDS011;67583;50.616;-3.404;2023-11-21T08:33:06;7.60;;;6.70;;
78322;SDS011;67583;50.616;-3.404;2023-11-21T08:35:32;5.72;;;4.60;;
78322;SDS011;67583;50.616;-3.404;2023-11-21T08:37:57;6.05;;;2.08;;
78322;SDS011;67583;50.616;-3.404;2023-11-21T08:40:23;3.92;;;1.95;;
78322;SDS011;67583;50.616;-3.404;2023-11-21T08:42:48;2.58;;;1.58;;
78322;SDS011;67583;50.616;-3.404;2023-11-21T08:45:17;7.28;;;4.25;;
78322;SDS011;67583;50.616;-3.404;2023-11-21T08:47:42;3.03;;;2.00;;
78322;SDS011;67583;50.616;-3.404;2023-11-21T08:50:09;11.82;;;8.77;;
78322;SDS011;67583;50.616;-3.404;2023-11-21T08:52:34;3.67;;;2.63;;
78322;SDS011;67583;50.616;-3.404;2023-11-21T08:55:02;1.85;;;1.40;;
78322;SDS011;67583;50.616;-3.404;2023-11-21T08:57:32;2.85;;;1.65;;
78322;SDS011;67583;50.616;-3.404;2023-11-21T09:00:01;3.72;;;2.83;;
78322;SDS011;67583;50.616;-3.404;2023-11-21T09:02:27;3.20;;;1.80;;
78322;SDS011;67583;50.616;-3.404;2023-11-21T09:04:53;1.35;;;1.02;;
78322;SDS011;67583;50.616;-3.404;2023-11-21T09:07:18;3.22;;;1.67;;
78322;SDS011;67583;50.616;-3.404;2023-11-21T09:09:46;3.65;;;1.60;;
78322;SDS011;67583;50.616;-3.404;2023-11-21T09:12:11;2.17;;;1.55;;
78322;SDS011;67583;50.616;-3.404;2023-11-21T09:14:37;3.10;;;0.93;;
78322;SDS011;67583;50.616;-3.404;2023-11-21T09:17:03;3.20;;;1.83;;
78322;SDS011;67583;50.616;-3.404;2023-11-21T09:19:28;2.70;;;1.23;;
78322;SDS011;67583;50.616;-3.404;2023-11-21T09:21:54;1.30;;;0.82;;
78322;SDS011;67583;50.616;-3.404;2023-11-21T09:24:19;1.98;;;0.98;;
78322;SDS011;67583;50.616;-3.404;2023-11-21T09:26:44;2.00;;;1.40;;
78322;SDS011;67583;50.616;-3.404;2023-11-21T09:29:10;2.72;;;2.10;;
78322;SDS011;67583;50.616;-3.404;2023-11-21T09:31:35;1.30;;;1.00;;
78322;SDS011;67583;50.616;-3.404;2023-11-21T09:34:01;3.72;;;1.00;;
78322;SDS011;67583;50.616;-3.404;2023-11-21T09:36:27;1.17;;;1.00;;
78322;SDS011;67583;50.616;-3.404;2023-11-21T09:38:55;3.30;;;1.10;;
78322;SDS011;67583;50.616;-3.404;2023-11-21T09:41:34;1.60;;;1.00;;
78322;SDS011;67583;50.616;-3.404;2023-11-21T09:44:05;2.08;;;0.95;;
78322;SDS011;67583;50.616;-3.404;2023-11-21T09:46:36;2.83;;;1.55;;
78322;SDS011;67583;50.616;-3.404;2023-11-21T09:49:04;1.95;;;1.08;;
78322;SDS011;67583;50.616;-3.404;2023-11-21T09:51:33;1.60;;;1.08;;
78322;SDS011;67583;50.616;-3.404;2023-11-21T09:54:03;1.65;;;1.05;;
78322;SDS011;67583;50.616;-3.404;2023-11-21T09:56:33;1.25;;;0.70;;
78322;SDS011;67583;50.616;-3.404;2023-11-21T09:59:00;2.45;;;0.90;;
78322;SDS011;67583;50.616;-3.404;2023-11-21T10:01:31;1.75;;;0.95;;
78322;SDS011;67583;50.616;-3.404;2023-11-21T10:03:57;1.85;;;0.98;;
78322;SDS011;67583;50.616;-3.404;2023-11-21T10:06:23;1.38;;;1.05;;
78322;SDS011;67583;50.616;-3.404;2023-11-21T10:08:50;3.95;;;2.20;;
78322;SDS011;67583;50.616;-3.404;2023-11-21T10:11:16;2.15;;;1.15;;
78322;SDS011;67583;50.616;-3.404;2023-11-21T10:13:43;3.03;;;0.95;;
78322;SDS011;67583;50.616;-3.404;2023-11-21T10:16:10;1.17;;;0.80;;
78322;SDS011;67583;50.616;-3.404;2023-11-21T10:18:36;2.35;;;0.70;;
78322;SDS011;67583;50.616;-3.404;2023-11-21T10:21:04;1.23;;;1.00;;
78322;SDS011;67583;50.616;-3.404;2023-11-21T10:23:31;1.15;;;0.82;;
78322;SDS011;67583;50.616;-3.404;2023-11-21T10:25:56;3.90;;;1.33;;
78322;SDS011;67583;50.616;-3.404;2023-11-21T10:28:24;3.00;;;1.20;;
78322;SDS011;67583;50.616;-3.404;2023-11-21T10:30:49;1.58;;;0.82;;
78322;SDS011;67583;50.616;-3.404;2023-11-21T10:33:15;0.80;;;0.75;;
78322;SDS011;67583;50.616;-3.404;2023-11-21T10:38:07;1.38;;;0.90;;
78322;SDS011;67583;50.616;-3.404;2023-11-21T10:40:37;4.53;;;1.30;;
78322;SDS011;67583;50.616;-3.404;2023-11-21T10:43:10;2.03;;;1.00;;
78322;SDS011;67583;50.616;-3.404;2023-11-21T10:45:40;0.93;;;0.60;;
78322;SDS011;67583;50.616;-3.404;2023-11-21T10:48:06;0.70;;;0.70;;
78322;SDS011;67583;50.616;-3.404;2023-11-21T10:50:33;1.75;;;1.20;;
78322;SDS011;67583;50.616;-3.404;2023-11-21T10:53:04;2.28;;;0.82;;
78322;SDS011;67583;50.616;-3.404;2023-11-21T10:55:30;1.05;;;0.70;;
78322;SDS011;67583;50.616;-3.404;2023-11-21T10:57:58;1.70;;;1.10;;
78322;SDS011;67583;50.616;-3.404;2023-11-21T11:00:25;0.93;;;0.77;;
78322;SDS011;67583;50.616;-3.404;2023-11-21T11:02:52;2.13;;;1.27;;
78322;SDS011;67583;50.616;-3.404;2023-11-21T11:05:19;2.08;;;1.08;;
78322;SDS011;67583;50.616;-3.404;2023-11-21T11:07:47;3.97;;;1.58;;
78322;SDS011;67583;50.616;-3.404;2023-11-21T11:10:13;1.00;;;0.82;;
78322;SDS011;67583;50.616;-3.404;2023-11-21T11:12:39;2.25;;;1.08;;
78322;SDS011;67583;50.616;-3.404;2023-11-21T11:15:06;2.53;;;1.23;;
78322;SDS011;67583;50.616;-3.404;2023-11-21T11:17:35;4.13;;;1.75;;
78322;SDS011;67583;50.616;-3.404;2023-11-21T11:20:03;15.45;;;9.10;;
78322;SDS011;67583;50.616;-3.404;2023-11-21T11:33:53;8.50;;;3.40;;
78322;SDS011;67583;50.616;-3.404;2023-11-21T11:38:51;2.55;;;0.90;;
78322;SDS011;67583;50.616;-3.404;2023-11-21T11:41:24;1.83;;;1.20;;
78322;SDS011;67583;50.616;-3.404;2023-11-21T11:43:55;5.03;;;3.47;;
78322;SDS011;67583;50.616;-3.404;2023-11-21T11:46:21;1.83;;;1.40;;
78322;SDS011;67583;50.616;-3.404;2023-11-21T11:49:06;4.35;;;3.30;;
78322;SDS011;67583;50.616;-3.404;2023-11-21T11:51:33;2.70;;;1.40;;
78322;SDS011;67583;50.616;-3.404;2023-11-21T11:57:01;1.30;;;1.00;;
78322;SDS011;67583;50.616;-3.404;2023-11-21T11:59:27;2.22;;;1.45;;
78322;SDS011;67583;50.616;-3.404;2023-11-21T12:01:53;1.77;;;0.98;;
78322;SDS011;67583;50.616;-3.404;2023-11-21T12:06:51;1.23;;;0.88;;
78322;SDS011;67583;50.616;-3.404;2023-11-21T12:09:18;2.53;;;1.13;;
78322;SDS011;67583;50.616;-3.404;2023-11-21T12:11:48;1.23;;;0.68;;
78322;SDS011;67583;50.616;-3.404;2023-11-21T12:14:14;1.88;;;0.73;;
78322;SDS011;67583;50.616;-3.404;2023-11-21T12:16:40;1.10;;;0.80;;
78322;SDS011;67583;50.616;-3.404;2023-11-21T12:19:05;1.90;;;1.30;;
78322;SDS011;67583;50.616;-3.404;2023-11-21T12:21:31;1.00;;;0.90;;
78322;SDS011;67583;50.616;-3.404;2023-11-21T12:23:57;1.90;;;1.30;;
78322;SDS011;67583;50.616;-3.404;2023-11-21T12:26:26;3.08;;;0.90;;
78322;SDS011;67583;50.616;-3.404;2023-11-21T12:28:52;2.10;;;0.95;;
78322;SDS011;67583;50.616;-3.404;2023-11-21T12:31:20;4.95;;;2.65;;
78322;SDS011;67583;50.616;-3.404;2023-11-21T12:33:46;1.08;;;0.90;;
78322;SDS011;67583;50.616;-3.404;2023-11-21T12:36:12;1.10;;;0.77;;
78322;SDS011;67583;50.616;-3.404;2023-11-21T12:38:38;2.28;;;1.70;;
78322;SDS011;67583;50.616;-3.404;2023-11-21T12:41:03;4.25;;;1.23;;
78322;SDS011;67583;50.616;-3.404;2023-11-21T12:43:29;1.80;;;1.20;;
78322;SDS011;67583;50.616;-3.404;2023-11-21T12:46:08;1.63;;;1.08;;
78322;SDS011;67583;50.616;-3.404;2023-11-21T12:48:38;2.05;;;1.30;;
78322;SDS011;67583;50.616;-3.404;2023-11-21T12:51:07;3.17;;;1.63;;
78322;SDS011;67583;50.616;-3.404;2023-11-21T12:53:32;1.88;;;1.55;;
78322;SDS011;67583;50.616;-3.404;2023-11-21T12:56:06;2.38;;;0.98;;
78322;SDS011;67583;50.616;-3.404;2023-11-21T12:58:37;4.82;;;1.40;;
78322;SDS011;67583;50.616;-3.404;2023-11-21T13:01:07;1.25;;;1.13;;
78322;SDS011;67583;50.616;-3.404;2023-11-21T13:03:39;1.42;;;1.10;;
78322;SDS011;67583;50.616;-3.404;2023-11-21T13:06:05;5.18;;;2.17;;
78322;SDS011;67583;50.616;-3.404;2023-11-21T13:08:32;5.38;;;1.23;;
78322;SDS011;67583;50.616;-3.404;2023-11-21T13:10:58;3.47;;;2.35;;
78322;SDS011;67583;50.616;-3.404;2023-11-21T13:13:24;4.53;;;1.25;;
78322;SDS011;67583;50.616;-3.404;2023-11-21T13:15:56;4.13;;;1.15;;
78322;SDS011;67583;50.616;-3.404;2023-11-21T13:18:25;1.80;;;1.10;;
78322;SDS011;67583;50.616;-3.404;2023-11-21T13:20:52;1.88;;;1.58;;
78322;SDS011;67583;50.616;-3.404;2023-11-21T13:23:18;1.40;;;0.93;;
78322;SDS011;67583;50.616;-3.404;2023-11-21T13:25:43;1.85;;;1.00;;
78322;SDS011;67583;50.616;-3.404;2023-11-21T13:28:10;1.35;;;1.00;;
78322;SDS011;67583;50.616;-3.404;2023-11-21T13:30:37;1.98;;;1.10;;
78322;SDS011;67583;50.616;-3.404;2023-11-21T13:33:04;2.47;;;1.45;;
78322;SDS011;67583;50.616;-3.404;2023-11-21T13:35:35;4.07;;;1.20;;
78322;SDS011;67583;50.616;-3.404;2023-11-21T13:38:08;1.48;;;1.00;;
78322;SDS011;67583;50.616;-3.404;2023-11-21T13:40:35;1.45;;;1.00;;
78322;SDS011;67583;50.616;-3.404;2023-11-21T13:43:23;5.60;;;3.88;;
78322;SDS011;67583;50.616;-3.404;2023-11-21T13:45:51;4.18;;;1.60;;
78322;SDS011;67583;50.616;-3.404;2023-11-21T13:48:27;4.45;;;3.95;;
78322;SDS011;67583;50.616;-3.404;2023-11-21T13:51:15;3.53;;;2.28;;
78322;SDS011;67583;50.616;-3.404;2023-11-21T13:53:42;6.10;;;1.70;;
78322;SDS011;67583;50.616;-3.404;2023-11-21T13:56:18;9.65;;;1.60;;
78322;SDS011;67583;50.616;-3.404;2023-11-21T13:58:53;3.03;;;1.40;;
78322;SDS011;67583;50.616;-3.404;2023-11-21T14:01:21;2.72;;;1.60;;
78322;SDS011;67583;50.616;-3.404;2023-11-21T14:03:56;3.05;;;1.85;;
78322;SDS011;67583;50.616;-3.404;2023-11-21T14:06:27;4.45;;;1.38;;
78322;SDS011;67583;50.616;-3.404;2023-11-21T14:08:59;3.55;;;1.30;;
78322;SDS011;67583;50.616;-3.404;2023-11-21T14:11:30;2.83;;;1.80;;
78322;SDS011;67583;50.616;-3.404;2023-11-21T14:13:56;5.40;;;1.67;;
78322;SDS011;67583;50.616;-3.404;2023-11-21T14:16:24;2.05;;;1.55;;
78322;SDS011;67583;50.616;-3.404;2023-11-21T14:18:50;4.38;;;1.77;;
78322;SDS011;67583;50.616;-3.404;2023-11-21T14:21:23;3.90;;;2.00;;
78322;SDS011;67583;50.616;-3.404;2023-11-21T14:23:49;6.18;;;2.10;;
78322;SDS011;67583;50.616;-3.404;2023-11-21T14:26:14;3.90;;;1.80;;
78322;SDS011;67583;50.616;-3.404;2023-11-21T14:28:41;4.18;;;1.80;;
78322;SDS011;67583;50.616;-3.404;2023-11-21T14:31:07;6.75;;;1.90;;
78322;SDS011;67583;50.616;-3.404;2023-11-21T14:33:38;2.75;;;1.67;;
78322;SDS011;67583;50.616;-3.404;2023-11-21T14:36:03;2.95;;;1.50;;
78322;SDS011;67583;50.616;-3.404;2023-11-21T14:38:29;1.90;;;1.50;;
78322;SDS011;67583;50.616;-3.404;2023-11-21T14:40:54;2.88;;;1.90;;
78322;SDS011;67583;50.616;-3.404;2023-11-21T14:43:20;3.03;;;1.60;;
78322;SDS011;67583;50.616;-3.404;2023-11-21T14:45:45;2.90;;;1.73;;
78322;SDS011;67583;50.616;-3.404;2023-11-21T14:48:11;2.92;;;1.90;;
78322;SDS011;67583;50.616;-3.404;2023-11-21T14:50:41;5.07;;;1.80;;
78322;SDS011;67583;50.616;-3.404;2023-11-21T14:53:07;3.90;;;1.60;;
78322;SDS011;67583;50.616;-3.404;2023-11-21T14:55:34;5.93;;;2.00;;
78322;SDS011;67583;50.616;-3.404;2023-11-21T14:58:21;5.45;;;2.00;;
78322;SDS011;67583;50.616;-3.404;2023-11-21T15:00:57;8.77;;;1.85;;
78322;SDS011;67583;50.616;-3.404;2023-11-21T15:03:23;3.03;;;1.83;;
78322;SDS011;67583;50.616;-3.404;2023-11-21T15:06:12;4.38;;;1.92;;
78322;SDS011;67583;50.616;-3.404;2023-11-21T15:08:51;3.90;;;2.20;;
78322;SDS011;67583;50.616;-3.404;2023-11-21T15:11:40;9.95;;;2.05;;
78322;SDS011;67583;50.616;-3.404;2023-11-21T15:14:06;5.35;;;1.80;;
78322;SDS011;67583;50.616;-3.404;2023-11-21T15:16:34;3.78;;;2.10;;
78322;SDS011;67583;50.616;-3.404;2023-11-21T15:19:08;2.47;;;1.63;;
78322;SDS011;67583;50.616;-3.404;2023-11-21T15:21:35;2.45;;;1.70;;